Time;durP1;ratioP1;P1;durP2;ratioP2;P2;SDS_P1;SDS_P2;PMS_P1;PMS_P2;Temp;Humidity;BMP_temperature;BMP_pressure;BME280_temperature;BME280_humidity;BME280_pressure;Samples;Min_cycle;Max_cycle;Signal;HPM_P1;HPM_P2
2023/02/15 00:01:38;;;;;;;26.80;10.38;;;1.90;99.90;;;;;;4980975;28;20147;-67
2023/02/15 00:04:05;;;;;;;19.90;8.65;;;2.00;99.90;;;;;;5003052;28;20516;-67
2023/02/15 00:06:31;;;;;;;25.55;8.85;;;1.90;99.90;;;;;;4992926;28;20569;-68
2023/02/15 00:08:58;;;;;;;28.30;9.50;;;1.90;99.90;;;;;;5008248;28;20037;-68
2023/02/15 00:11:39;;;;;;;26.17;9.32;;;1.90;99.90;;;;;;4992904;28;20722;-67
2023/02/15 00:14:16;;;;;;;36.45;12.25;;;1.90;99.90;;;;;;5009003;28;20042;-68
2023/02/15 00:16:44;;;;;;;19.25;8.65;;;1.90;99.90;;;;;;5010319;28;20463;-67
2023/02/15 00:19:12;;;;;;;25.92;8.82;;;1.90;99.90;;;;;;4992475;28;20101;-68
2023/02/15 00:21:39;;;;;;;41.60;11.05;;;1.90;99.90;;;;;;4993152;28;20393;-68
2023/02/15 00:24:08;;;;;;;21.98;7.68;;;2.00;99.90;;;;;;4992741;28;20128;-68
2023/02/15 00:26:35;;;;;;;24.67;7.78;;;2.00;99.90;;;;;;4992790;28;20032;-68
2023/02/15 00:29:01;;;;;;;24.85;8.05;;;1.80;99.90;;;;;;4992434;28;20164;-68
2023/02/15 00:31:33;;;;;;;30.38;10.25;;;1.60;99.90;;;;;;4976745;28;20042;-68
2023/02/15 00:34:11;;;;;;;13.73;7.65;;;1.80;99.90;;;;;;4987510;28;20026;-68
2023/02/15 00:36:37;;;;;;;26.95;9.43;;;1.80;99.90;;;;;;4991880;28;20560;-68
2023/02/15 00:39:04;;;;;;;26.77;9.75;;;1.80;99.90;;;;;;5010669;28;20033;-68
2023/02/15 00:41:31;;;;;;;18.85;7.75;;;1.70;99.90;;;;;;4988483;28;20022;-68
2023/02/15 00:43:57;;;;;;;30.33;10.40;;;1.60;99.90;;;;;;4998361;28;20096;-68
2023/02/15 00:46:23;;;;;;;25.02;9.20;;;1.50;99.90;;;;;;5008865;28;20029;-68
2023/02/15 00:48:49;;;;;;;21.17;8.63;;;1.60;99.90;;;;;;5009178;28;20120;-68
2023/02/15 00:51:17;;;;;;;23.58;9.07;;;1.50;99.90;;;;;;5010323;28;20022;-68
2023/02/15 00:53:44;;;;;;;20.67;6.88;;;1.50;99.90;;;;;;4996305;28;20545;-68
2023/02/15 00:56:11;;;;;;;16.98;7.40;;;1.60;99.90;;;;;;4996467;28;20171;-68
2023/02/15 00:58:36;;;;;;;16.88;8.00;;;1.60;99.90;;;;;;4996093;28;20065;-68
2023/02/15 01:01:12;;;;;;;35.17;8.88;;;1.60;99.90;;;;;;4996421;28;20119;-68
2023/02/15 01:03:38;;;;;;;22.48;7.82;;;1.60;99.90;;;;;;4996236;28;20117;-67
2023/02/15 01:06:04;;;;;;;20.15;8.98;;;1.60;99.90;;;;;;4996406;28;20113;-68
2023/02/15 01:08:31;;;;;;;22.75;9.90;;;1.60;99.90;;;;;;4995520;28;20034;-67
2023/02/15 01:11:02;;;;;;;22.02;7.60;;;1.60;99.90;;;;;;4996002;28;20054;-68
2023/02/15 01:13:27;;;;;;;;;;;1.70;99.90;;;;;;4996075;28;20037;-68
2023/02/15 01:15:54;;;;;;;19.13;8.55;;;1.70;99.90;;;;;;5013656;28;19909;-68
2023/02/15 01:18:21;;;;;;;21.98;8.73;;;1.60;99.90;;;;;;4986496;28;20044;-68
2023/02/15 01:20:47;;;;;;;24.23;8.73;;;1.50;99.90;;;;;;5013465;28;20197;-67
2023/02/15 01:23:13;;;;;;;30.33;7.85;;;1.40;99.90;;;;;;5011460;28;20148;-68
2023/02/15 01:25:38;;;;;;;26.92;10.35;;;1.50;99.90;;;;;;5013426;28;20113;-68
2023/02/15 01:28:04;;;;;;;27.98;8.20;;;1.60;99.90;;;;;;4994610;28;20022;-68
2023/02/15 01:30:31;;;;;;;27.98;8.55;;;1.60;99.90;;;;;;5013363;28;20065;-68
2023/02/15 01:32:57;;;;;;;27.05;7.28;;;1.50;99.90;;;;;;4994887;28;20072;-68
2023/02/15 01:35:24;;;;;;;26.60;10.43;;;1.60;99.90;;;;;;4995792;28;20057;-67
2023/02/15 01:37:49;;;;;;;28.48;11.20;;;1.60;99.90;;;;;;5012747;28;20025;-67
2023/02/15 01:40:18;;;;;;;28.35;9.18;;;1.70;99.90;;;;;;4994471;28;20034;-67
2023/02/15 01:42:44;;;;;;;17.63;8.93;;;1.70;99.90;;;;;;5012136;28;20397;-67
2023/02/15 01:45:30;;;;;;;24.20;10.10;;;1.80;99.90;;;;;;4994975;28;20029;-67
2023/02/15 01:48:10;;;;;;;23.63;7.80;;;1.90;99.90;;;;;;4995406;28;20524;-67
2023/02/15 01:50:42;;;;;;;24.13;8.73;;;1.90;99.90;;;;;;5013254;28;20041;-67
2023/02/15 01:53:40;;;;;;;26.52;10.02;;;1.80;99.90;;;;;;5011192;28;20037;-67
2023/02/15 01:56:14;;;;;;;25.02;9.27;;;1.80;99.90;;;;;;5013183;28;20045;-67
2023/02/15 01:58:42;;;;;;;25.63;10.57;;;1.80;99.90;;;;;;4995661;28;20545;-67
2023/02/15 02:01:08;;;;;;;23.02;8.95;;;1.70;99.90;;;;;;4995527;28;20108;-67
2023/02/15 02:04:00;;;;;;;23.20;10.85;;;1.80;99.90;;;;;;5010804;28;20038;-67
2023/02/15 02:06:27;;;;;;;46.90;10.60;;;1.80;99.90;;;;;;5003995;28;20070;-67
2023/02/15 02:08:54;;;;;;;31.67;10.88;;;1.60;99.90;;;;;;4989977;28;20096;-67
2023/02/15 02:11:21;;;;;;;32.13;10.20;;;1.50;99.90;;;;;;5029313;23;20049;-69
2023/02/15 02:13:47;;;;;;;22.63;11.30;;;1.40;99.90;;;;;;5029057;28;20030;-68
2023/02/15 02:16:34;;;;;;;23.10;9.98;;;1.40;99.90;;;;;;5003508;28;20513;-68
2023/02/15 02:19:37;;;;;;;31.27;10.13;;;1.40;99.90;;;;;;5009423;28;20112;-70
2023/02/15 02:22:40;;;;;;;28.00;8.35;;;1.30;99.90;;;;;;5037563;28;20037;-69
2023/02/15 02:25:32;;;;;;;22.25;9.32;;;1.30;99.90;;;;;;5033548;28;20469;-69
2023/02/15 02:28:36;;;;;;;18.55;8.10;;;1.40;99.90;;;;;;4993397;28;20496;-70
2023/02/15 02:31:44;;;;;;;29.42;9.85;;;1.40;99.90;;;;;;5029749;28;20045;-70
2023/02/15 02:34:35;;;;;;;22.08;11.10;;;1.40;99.90;;;;;;5043620;28;20115;-69
2023/02/15 02:37:33;;;;;;;20.30;8.13;;;1.40;99.90;;;;;;5046006;28;20408;-70
2023/02/15 02:40:22;;;;;;;21.15;7.90;;;1.60;99.90;;;;;;5047632;28;20064;-70
2023/02/15 02:43:02;;;;;;;31.60;8.60;;;1.60;99.90;;;;;;5024187;28;20181;-70
2023/02/15 02:45:57;;;;;;;31.92;10.38;;;1.70;99.90;;;;;;5011145;28;20069;-69
2023/02/15 02:48:28;;;;;;;13.95;7.93;;;1.60;99.90;;;;;;5015053;28;20038;-69
2023/02/15 02:50:53;;;;;;;24.20;9.13;;;1.50;99.90;;;;;;5011037;28;20033;-69
2023/02/15 02:53:19;;;;;;;24.33;8.85;;;1.50;99.90;;;;;;5025627;28;20032;-70
2023/02/15 02:55:55;;;;;;;69.90;10.50;;;1.50;99.90;;;;;;5046953;28;20037;-70
2023/02/15 02:58:45;;;;;;;18.05;6.95;;;1.40;99.90;;;;;;5014439;28;20021;-69
2023/02/15 03:01:17;;;;;;;24.60;8.38;;;1.40;99.90;;;;;;5030018;28;20026;-70
2023/02/15 03:04:00;;;;;;;19.58;9.88;;;1.40;99.90;;;;;;5021177;28;20036;-70
2023/02/15 03:06:48;;;;;;;22.75;9.90;;;1.30;99.90;;;;;;5017981;28;20047;-69
2023/02/15 03:09:41;;;;;;;28.20;9.02;;;1.40;99.90;;;;;;5026885;28;20033;-70
2023/02/15 03:12:32;;;;;;;30.27;9.73;;;1.50;99.90;;;;;;5028554;28;20045;-69
2023/02/15 03:15:15;;;;;;;26.88;9.32;;;1.40;99.90;;;;;;5028087;28;20447;-70
2023/02/15 03:17:54;;;;;;;27.42;9.98;;;1.60;99.90;;;;;;5021502;28;20602;-70
2023/02/15 03:20:32;;;;;;;21.77;9.15;;;1.60;99.90;;;;;;5051219;28;20043;-69
2023/02/15 03:23:13;;;;;;;27.45;10.98;;;1.50;99.90;;;;;;5022193;28;20493;-69
2023/02/15 03:25:49;;;;;;;13.45;8.65;;;1.40;99.90;;;;;;5048188;28;20037;-70
2023/02/15 03:28:28;;;;;;;26.55;11.23;;;1.40;99.90;;;;;;5023822;28;20068;-70
2023/02/15 03:30:58;;;;;;;17.85;7.03;;;1.40;99.90;;;;;;5026647;28;20041;-69
2023/02/15 03:33:27;;;;;;;20.77;6.75;;;1.30;99.90;;;;;;5021773;28;20022;-69
2023/02/15 03:36:08;;;;;;;16.40;7.68;;;1.40;99.90;;;;;;5010174;28;20026;-69
2023/02/15 03:39:09;;;;;;;21.13;8.93;;;1.50;99.90;;;;;;5022133;28;20026;-69
2023/02/15 03:41:48;;;;;;;28.88;7.18;;;1.50;99.90;;;;;;5007846;28;20440;-70
2023/02/15 03:44:33;;;;;;;20.73;8.80;;;1.40;99.90;;;;;;5025782;28;20036;-70
2023/02/15 03:47:13;;;;;;;24.48;7.88;;;1.60;99.90;;;;;;5028008;28;20391;-69
2023/02/15 03:53:02;;;;;;;15.75;7.00;;;1.40;99.90;;;;;;5039162;28;20099;-70
2023/02/15 03:55:28;;;;;;;30.13;8.63;;;1.50;99.90;;;;;;5033213;28;20028;-70
2023/02/15 04:03:47;;;;;;;30.60;11.05;;;1.60;99.90;;;;;;5032460;28;20033;-69
2023/02/15 04:06:13;;;;;;;12.43;6.72;;;1.60;99.90;;;;;;4996909;28;20029;-69
2023/02/15 04:11:23;;;;;;;17.33;7.70;;;1.40;99.90;;;;;;5042869;28;20045;-69
2023/02/15 04:13:56;;;;;;;25.73;10.27;;;1.30;99.90;;;;;;5041990;28;20036;-69
2023/02/15 04:16:23;;;;;;;20.80;11.05;;;1.30;99.90;;;;;;5033275;28;20024;-69
2023/02/15 04:27:04;;;;;;;35.88;9.85;;;1.30;99.90;;;;;;5045600;28;20129;-69
2023/02/15 04:29:30;;;;;;;22.30;7.30;;;1.40;99.90;;;;;;5029752;28;20503;-69
2023/02/15 04:31:59;;;;;;;24.83;7.65;;;1.30;99.90;;;;;;5030782;28;20036;-69
2023/02/15 04:34:25;;;;;;;21.38;7.65;;;1.30;99.90;;;;;;5029190;28;20025;-69
2023/02/15 04:36:51;;;;;;;15.07;7.72;;;1.30;99.90;;;;;;5031858;28;20607;-69
2023/02/15 04:39:18;;;;;;;18.45;9.38;;;1.30;99.90;;;;;;5028105;28;20096;-69
2023/02/15 04:41:45;;;;;;;14.38;6.25;;;1.30;99.90;;;;;;5049200;28;20491;-69
2023/02/15 04:44:11;;;;;;;15.23;6.88;;;1.30;99.90;;;;;;5028203;28;20029;-70
2023/02/15 04:46:37;;;;;;;21.08;7.43;;;1.30;99.90;;;;;;5015151;28;20033;-70
2023/02/15 04:49:03;;;;;;;26.48;8.77;;;1.30;99.90;;;;;;5045799;28;20037;-69
2023/02/15 04:51:29;;;;;;;26.13;10.25;;;1.30;99.90;;;;;;5031960;28;20083;-70
2023/02/15 04:53:56;;;;;;;28.75;9.38;;;1.20;99.90;;;;;;5045604;28;20025;-70
2023/02/15 04:56:22;;;;;;;19.08;8.90;;;1.30;99.90;;;;;;5046118;28;20075;-68
2023/02/15 04:58:48;;;;;;;20.98;7.80;;;1.30;99.90;;;;;;5045320;28;20028;-68
2023/02/15 05:01:14;;;;;;;29.45;9.90;;;1.10;99.90;;;;;;5031744;28;20102;-70
2023/02/15 05:03:40;;;;;;;16.08;8.27;;;1.20;99.90;;;;;;5027782;28;20040;-68
2023/02/15 05:06:07;;;;;;;23.15;8.32;;;1.30;99.90;;;;;;5046056;28;20041;-69
2023/02/15 05:08:32;;;;;;;16.55;7.53;;;1.40;99.90;;;;;;5027411;28;20033;-69
2023/02/15 05:10:58;;;;;;;27.33;11.20;;;1.40;99.90;;;;;;5046010;28;20453;-69
2023/02/15 05:13:24;;;;;;;19.50;8.43;;;1.50;99.90;;;;;;5045241;28;20561;-69
2023/02/15 05:15:54;;;;;;;20.33;9.98;;;1.40;99.90;;;;;;5020129;28;20040;-69
2023/02/15 05:18:21;;;;;;;24.23;10.55;;;1.20;99.90;;;;;;5026836;28;20385;-69
2023/02/15 05:20:47;;;;;;;17.23;6.82;;;1.10;99.90;;;;;;5030335;28;20033;-69
2023/02/15 05:23:13;;;;;;;21.02;8.02;;;1.10;99.90;;;;;;5025469;28;20048;-69
2023/02/15 05:28:27;;;;;;;24.77;8.90;;;1.30;99.90;;;;;;5029676;28;20083;-69
2023/02/15 05:31:07;;;;;;;31.77;10.27;;;1.60;99.90;;;;;;5028861;28;20563;-69
2023/02/15 05:33:33;;;;;;;16.58;7.53;;;1.50;99.90;;;;;;5034771;28;20045;-69
2023/02/15 05:36:00;;;;;;;23.27;7.80;;;1.50;99.90;;;;;;5012953;28;20034;-69
2023/02/15 05:38:26;;;;;;;18.73;7.03;;;1.40;99.90;;;;;;5005223;28;20374;-69
2023/02/15 05:40:53;;;;;;;24.48;9.13;;;1.40;99.90;;;;;;5008574;28;20061;-68
2023/02/15 05:43:19;;;;;;;22.27;9.50;;;1.30;99.90;;;;;;5026562;28;20542;-69
2023/02/15 05:45:51;;;;;;;21.33;9.63;;;1.30;99.90;;;;;;5008060;28;20042;-69
2023/02/15 05:48:20;;;;;;;22.10;7.45;;;1.30;99.90;;;;;;5025756;28;20476;-67
2023/02/15 05:50:46;;;;;;;14.27;9.07;;;1.30;99.90;;;;;;5014008;28;20033;-69
2023/02/15 05:53:12;;;;;;;12.63;5.70;;;1.30;99.90;;;;;;5018496;28;20063;-69
2023/02/15 05:55:41;;;;;;;35.80;8.02;;;1.20;99.90;;;;;;4978010;28;20033;-70
2023/02/15 05:58:07;;;;;;;25.38;8.10;;;1.20;99.90;;;;;;5021315;28;20076;-69
2023/02/15 06:00:34;;;;;;;9.23;6.68;;;1.20;99.90;;;;;;5045836;28;20049;-70
2023/02/15 06:03:00;;;;;;;14.13;7.13;;;1.20;99.90;;;;;;5030240;28;20491;-69
2023/02/15 06:05:26;;;;;;;19.83;9.00;;;1.20;99.90;;;;;;5027044;28;20120;-69
2023/02/15 06:07:52;;;;;;;25.33;9.45;;;1.20;99.90;;;;;;5028991;28;20037;-70
2023/02/15 06:10:17;;;;;;;21.70;8.93;;;1.20;99.90;;;;;;5028831;28;20041;-70
2023/02/15 06:12:44;;;;;;;11.60;5.80;;;1.20;99.90;;;;;;5034085;28;20025;-69
2023/02/15 06:15:10;;;;;;;18.27;7.18;;;1.20;99.90;;;;;;5008284;28;20017;-70
2023/02/15 06:17:36;;;;;;;33.30;9.77;;;1.30;99.90;;;;;;5031543;28;20108;-70
2023/02/15 06:20:03;;;;;;;13.65;5.25;;;1.30;99.90;;;;;;5033627;28;20091;-70
2023/02/15 06:22:29;;;;;;;15.98;8.25;;;1.30;99.90;;;;;;5037517;28;20031;-69
2023/02/15 06:24:55;;;;;;;16.58;6.50;;;1.30;99.90;;;;;;5023650;28;20124;-69
2023/02/15 06:27:20;;;;;;;14.70;6.95;;;1.40;99.90;;;;;;4992900;28;20075;-69
2023/02/15 06:29:46;;;;;;;23.30;6.88;;;1.40;99.90;;;;;;5047551;28;20040;-70
2023/02/15 06:32:12;;;;;;;11.80;7.05;;;1.40;99.90;;;;;;5044791;28;20040;-69
2023/02/15 06:34:37;;;;;;;21.20;7.18;;;1.40;99.90;;;;;;5045891;28;20116;-69
2023/02/15 06:37:03;;;;;;;9.60;6.57;;;1.40;99.90;;;;;;5037722;28;20493;-71
2023/02/15 06:39:29;;;;;;;12.15;6.63;;;1.50;99.90;;;;;;5029705;28;20029;-70
2023/02/15 06:41:55;;;;;;;19.27;6.53;;;1.50;99.90;;;;;;5024915;28;20388;-72
2023/02/15 06:44:20;;;;;;;21.98;8.85;;;1.50;99.90;;;;;;5026899;28;20029;-70
2023/02/15 06:46:46;;;;;;;31.73;8.73;;;1.50;99.90;;;;;;5007564;28;20045;-71
2023/02/15 06:49:12;;;;;;;28.42;8.82;;;1.50;99.90;;;;;;5011341;28;20047;-71
2023/02/15 06:51:38;;;;;;;24.55;7.07;;;1.30;99.90;;;;;;5026899;28;20168;-72
2023/02/15 06:54:03;;;;;;;24.13;9.65;;;1.30;99.90;;;;;;5025426;28;20034;-69
2023/02/15 06:56:29;;;;;;;19.83;7.03;;;1.20;99.90;;;;;;5003735;28;20037;-71
2023/02/15 06:58:55;;;;;;;11.05;6.30;;;1.20;99.90;;;;;;5025417;28;20073;-72
2023/02/15 07:01:21;;;;;;;11.52;6.60;;;1.30;99.90;;;;;;5002403;28;20030;-72
2023/02/15 07:03:47;;;;;;;16.80;6.10;;;1.30;99.90;;;;;;5009049;28;20033;-71
2023/02/15 07:06:12;;;;;;;29.35;9.90;;;1.30;99.90;;;;;;5006379;28;20046;-75
2023/02/15 07:08:39;;;;;;;24.48;10.18;;;1.30;99.90;;;;;;5029331;28;20475;-69
2023/02/15 07:13:52;;;;;;;29.30;8.05;;;1.30;99.90;;;;;;5031071;28;20028;-70
2023/02/15 07:16:19;;;;;;;26.63;10.63;;;1.40;99.90;;;;;;5025151;28;20022;-68
2023/02/15 07:18:44;;;;;;;26.60;7.07;;;1.50;99.90;;;;;;5028546;28;20066;-69
2023/02/15 07:21:10;;;;;;;27.17;9.57;;;1.50;99.90;;;;;;5008698;28;20084;-69
2023/02/15 07:23:38;;;;;;;27.25;6.68;;;1.40;99.90;;;;;;5008754;28;20037;-69
2023/02/15 07:26:06;;;;;;;17.67;6.15;;;1.50;99.90;;;;;;5012032;28;20099;-69
2023/02/15 07:28:36;;;;;;;23.85;8.68;;;1.50;99.90;;;;;;5037262;28;20033;-69
2023/02/15 07:31:03;;;;;;;35.00;10.13;;;1.50;99.90;;;;;;5020905;28;20036;-69
2023/02/15 07:33:33;;;;;;;16.75;8.57;;;1.50;99.90;;;;;;5043558;28;20028;-69
2023/02/15 07:36:02;;;;;;;29.63;10.75;;;1.50;99.90;;;;;;5020334;28;20395;-70
2023/02/15 07:38:33;;;;;;;26.10;8.23;;;1.50;99.90;;;;;;5009070;28;20571;-69
2023/02/15 07:41:05;;;;;;;;;;;1.50;99.90;;;;;;5002762;28;20132;-70
2023/02/15 07:43:37;;;;;;;19.67;8.93;;;1.50;99.90;;;;;;5006527;28;20437;-69
2023/02/15 07:46:07;;;;;;;25.85;9.63;;;1.50;99.90;;;;;;5023695;28;20041;-69
2023/02/15 07:48:34;;;;;;;12.93;7.05;;;1.50;99.90;;;;;;5029563;28;20041;-69
2023/02/15 07:51:02;;;;;;;16.13;6.47;;;1.60;99.90;;;;;;5008744;28;20485;-69
2023/02/15 07:53:28;;;;;;;23.65;8.15;;;1.60;99.90;;;;;;5024815;28;20476;-69
2023/02/15 07:55:54;;;;;;;51.25;10.40;;;1.70;99.90;;;;;;5042543;28;20108;-69
2023/02/15 07:58:20;;;;;;;27.73;11.45;;;1.70;99.90;;;;;;5036067;28;20026;-69
2023/02/15 08:01:00;;;;;;;27.58;9.60;;;1.70;99.90;;;;;;5009061;28;20398;-69
2023/02/15 08:03:28;;;;;;;16.77;7.22;;;1.70;99.90;;;;;;5022925;28;20381;-69
2023/02/15 08:05:59;;;;;;;20.08;7.32;;;1.70;99.90;;;;;;5007667;28;20126;-69
2023/02/15 08:08:32;;;;;;;18.33;8.20;;;1.80;99.90;;;;;;5008346;28;20398;-69
2023/02/15 08:13:54;;;;;;;26.27;10.77;;;1.80;99.90;;;;;;4999462;28;20030;-69
2023/02/15 08:16:35;;;;;;;24.90;9.55;;;1.70;99.90;;;;;;5003583;28;20030;-70
2023/02/15 08:19:06;;;;;;;27.42;9.07;;;1.70;99.90;;;;;;4986162;28;20057;-69
2023/02/15 08:21:34;;;;;;;25.77;8.75;;;1.60;99.90;;;;;;5004035;28;20031;-69
2023/02/15 08:24:01;;;;;;;17.50;7.90;;;1.60;99.90;;;;;;4991448;28;20490;-69
2023/02/15 08:26:28;;;;;;;17.90;9.35;;;1.60;99.90;;;;;;5005290;28;20041;-70
2023/02/15 08:28:55;;;;;;;23.15;7.97;;;1.60;99.90;;;;;;5004614;28;20022;-69
2023/02/15 08:31:22;;;;;;;18.35;12.07;;;1.60;99.90;;;;;;4989261;28;20038;-69
2023/02/15 08:33:50;;;;;;;37.38;10.68;;;1.60;99.90;;;;;;4986526;28;20038;-69
2023/02/15 08:36:19;;;;;;;21.05;10.20;;;1.60;99.90;;;;;;5007020;28;20034;-66
2023/02/15 08:38:46;;;;;;;21.33;8.95;;;1.70;99.90;;;;;;4983799;28;20041;-69
2023/02/15 08:41:25;;;;;;;48.60;8.60;;;1.70;99.90;;;;;;4982202;28;20029;-69
2023/02/15 08:43:54;;;;;;;20.05;8.85;;;1.70;99.90;;;;;;5003897;28;20030;-72
2023/02/15 08:46:23;;;;;;;17.45;11.25;;;1.60;99.90;;;;;;4997040;28;20031;-69
2023/02/15 08:48:49;;;;;;;16.83;6.95;;;1.60;99.90;;;;;;4975393;28;20038;-69
2023/02/15 08:51:22;;;;;;;34.05;10.90;;;1.60;99.90;;;;;;5007780;28;20041;-69
2023/02/15 08:53:51;;;;;;;36.80;10.40;;;1.70;99.90;;;;;;4987875;28;20035;-69
2023/02/15 08:56:20;;;;;;;24.33;10.23;;;1.70;99.90;;;;;;4999007;28;20034;-70
2023/02/15 08:58:46;;;;;;;47.95;9.05;;;1.70;99.90;;;;;;4986387;28;20030;-69
2023/02/15 09:01:19;;;;;;;22.88;9.88;;;1.60;99.90;;;;;;4984237;28;20096;-69
2023/02/15 09:03:49;;;;;;;21.35;10.13;;;1.60;99.90;;;;;;5008340;28;20087;-69
2023/02/15 09:06:17;;;;;;;23.00;8.88;;;1.60;99.90;;;;;;4992618;28;20765;-70
2023/02/15 09:08:43;;;;;;;20.05;8.50;;;1.70;99.90;;;;;;4995009;28;20038;-68
2023/02/15 09:11:21;;;;;;;15.68;8.82;;;1.80;99.90;;;;;;5004303;28;20030;-68
2023/02/15 09:14:03;;;;;;;11.18;6.72;;;1.80;99.90;;;;;;4986034;28;20583;-68
2023/02/15 09:16:32;;;;;;;15.05;7.50;;;1.70;99.90;;;;;;4996535;28;20038;-68
2023/02/15 09:18:59;;;;;;;17.77;7.57;;;1.80;99.90;;;;;;4993831;28;20041;-69
2023/02/15 09:21:26;;;;;;;20.05;6.78;;;1.70;99.90;;;;;;4987508;28;20531;-69
2023/02/15 09:24:01;;;;;;;30.20;9.80;;;1.80;99.90;;;;;;5009555;28;20034;-68
2023/02/15 09:26:30;;;;;;;25.27;12.00;;;1.80;99.90;;;;;;4996973;28;20034;-69
2023/02/15 09:29:01;;;;;;;19.65;9.45;;;1.90;99.90;;;;;;4993882;28;20109;-69
2023/02/15 09:31:30;;;;;;;32.35;9.25;;;1.90;99.90;;;;;;5001070;28;20800;-69
2023/02/15 09:33:58;;;;;;;31.63;11.35;;;1.90;99.90;;;;;;4992505;28;20025;-69
2023/02/15 09:36:31;;;;;;;15.93;7.28;;;1.70;99.90;;;;;;4990976;28;20105;-69
2023/02/15 09:39:25;;;;;;;16.88;8.50;;;1.80;99.90;;;;;;5010155;28;20062;-71
2023/02/15 09:42:32;;;;;;;19.17;8.00;;;1.70;99.90;;;;;;5004465;28;20459;-67
2023/02/15 09:45:16;;;;;;;22.00;7.72;;;1.80;99.90;;;;;;4992150;28;20039;-69
2023/02/15 09:48:07;;;;;;;16.98;6.55;;;1.60;99.90;;;;;;4991537;28;20080;-69
2023/02/15 09:50:59;;;;;;;35.58;11.63;;;1.70;99.90;;;;;;5000533;28;20049;-70
2023/02/15 09:53:56;;;;;;;14.60;7.25;;;1.70;99.90;;;;;;4994885;28;20019;-69
2023/02/15 09:56:37;;;;;;;28.88;9.43;;;1.50;99.90;;;;;;4996751;28;20040;-68
2023/02/15 09:59:41;;;;;;;37.03;8.43;;;1.70;99.90;;;;;;4986871;28;20485;-68
2023/02/15 10:02:37;;;;;;;13.80;7.20;;;1.80;99.90;;;;;;4987344;28;20046;-67
2023/02/15 10:05:39;;;;;;;18.42;9.52;;;1.80;99.90;;;;;;4979240;28;20506;-69
2023/02/15 10:08:27;;;;;;;;;;;1.70;99.90;;;;;;4978615;28;20048;-69
2023/02/15 10:11:51;;;;;;;46.60;9.57;;;1.50;99.90;;;;;;5006664;28;19921;-70
2023/02/15 10:15:27;;;;;;;10.15;5.53;;;1.60;99.90;;;;;;4948991;29;20089;-70
2023/02/15 10:18:43;;;;;;;12.75;6.63;;;1.50;99.90;;;;;;4901930;29;20058;-70
2023/02/15 10:22:04;;;;;;;21.67;9.38;;;1.60;99.90;;;;;;4887825;29;20066;-69
2023/02/15 10:25:16;;;;;;;18.67;9.10;;;1.50;99.90;;;;;;4891310;29;20560;-70
2023/02/15 10:27:48;;;;;;;15.68;8.57;;;1.50;99.90;;;;;;4879694;29;20108;-69
2023/02/15 10:30:48;;;;;;;27.52;10.48;;;1.60;99.90;;;;;;4875537;29;20391;-70
2023/02/15 10:33:40;;;;;;;13.85;7.50;;;1.60;99.90;;;;;;4874446;29;20076;-70
2023/02/15 10:36:48;;;;;;;14.93;7.60;;;1.60;99.90;;;;;;4869854;29;20077;-70
2023/02/15 10:40:10;;;;;;;21.60;9.27;;;1.60;99.90;;;;;;4875021;29;20490;-69
2023/02/15 10:47:35;;;;;;;26.95;9.15;;;1.50;99.90;;;;;;4848529;29;20030;-70
2023/02/15 10:50:50;;;;;;;15.25;7.95;;;1.50;99.90;;;;;;4899037;29;20056;-69
2023/02/15 10:53:46;;;;;;;21.17;8.88;;;1.50;99.90;;;;;;4892950;29;20036;-69
2023/02/15 11:00:41;;;;;;;19.33;8.75;;;1.70;99.90;;;;;;4783314;29;20054;-70
2023/02/15 11:03:51;;;;;;;19.95;8.50;;;1.50;99.90;;;;;;4781424;29;20480;-70
2023/02/15 11:06:55;;;;;;;21.40;8.90;;;1.50;99.90;;;;;;4855680;29;20044;-69
2023/02/15 11:09:55;;;;;;;28.52;10.20;;;1.40;99.90;;;;;;4862218;29;20050;-70
2023/02/15 11:12:51;;;;;;;14.77;10.30;;;1.40;99.90;;;;;;4853381;29;20549;-69
2023/02/15 11:29:50;;;;;;;18.02;8.40;;;1.70;99.90;;;;;;4997491;28;20413;-70
2023/02/15 11:32:39;;;;;;;24.95;9.68;;;1.60;99.90;;;;;;4997770;28;20066;-70
2023/02/15 11:35:28;;;;;;;21.30;11.32;;;1.50;99.90;;;;;;4974982;28;20033;-70
2023/02/15 11:38:14;;;;;;;24.63;11.85;;;1.60;99.90;;;;;;4985404;28;20025;-70
2023/02/15 11:40:58;;;;;;;20.20;9.57;;;1.70;99.90;;;;;;4989816;28;20485;-76
2023/02/15 11:43:48;;;;;;;19.77;10.50;;;1.50;99.90;;;;;;4986739;28;20117;-71
2023/02/15 11:46:14;;;;;;;19.95;9.18;;;1.70;99.90;;;;;;4994068;28;21039;-71
2023/02/15 11:48:42;;;;;;;14.95;8.45;;;1.70;99.90;;;;;;4993538;28;20489;-77
2023/02/15 11:51:22;;;;;;;30.13;10.95;;;1.80;99.90;;;;;;4997161;28;20034;-74
2023/02/15 11:53:49;;;;;;;19.63;8.60;;;1.80;99.90;;;;;;5003565;28;20099;-80
2023/02/15 11:56:23;;;;;;;22.75;10.15;;;1.80;99.90;;;;;;4981462;28;20022;-70
2023/02/15 11:58:56;;;;;;;22.85;11.60;;;1.90;99.90;;;;;;5006935;28;20026;-72
2023/02/15 12:01:35;;;;;;;20.67;10.95;;;2.00;99.90;;;;;;5002732;28;20044;-70
2023/02/15 12:04:29;;;;;;;21.20;8.25;;;2.00;99.90;;;;;;4999286;28;20026;-69
2023/02/15 12:07:02;;;;;;;25.83;10.27;;;2.20;99.90;;;;;;5001671;28;20030;-67
2023/02/15 12:10:07;;;;;;;17.98;9.95;;;2.20;99.90;;;;;;4997913;28;20032;-69
2023/02/15 12:12:36;;;;;;;22.42;9.05;;;2.30;99.90;;;;;;5009773;28;20563;-68
2023/02/15 12:15:11;;;;;;;19.70;9.10;;;2.30;99.90;;;;;;5009874;28;20025;-72
2023/02/15 12:17:50;;;;;;;24.10;11.43;;;2.40;99.90;;;;;;4986479;28;20128;-73
2023/02/15 12:20:15;;;;;;;22.70;11.23;;;2.50;99.90;;;;;;4988912;28;20026;-67
2023/02/15 12:23:01;;;;;;;32.67;11.10;;;2.50;99.90;;;;;;5001773;28;20034;-67
2023/02/15 12:25:41;;;;;;;30.00;11.35;;;2.40;99.90;;;;;;5001536;28;20100;-64
2023/02/15 12:28:38;;;;;;;25.45;11.13;;;2.60;99.90;;;;;;4992859;28;20041;-65
2023/02/15 12:31:20;;;;;;;28.60;12.10;;;2.30;99.90;;;;;;4988928;28;20026;-65
2023/02/15 12:33:46;;;;;;;25.25;9.55;;;2.40;99.90;;;;;;4993832;28;20046;-65
2023/02/15 12:36:29;;;;;;;20.45;9.20;;;2.40;99.90;;;;;;4990825;28;20022;-65
2023/02/15 12:39:12;;;;;;;27.45;13.30;;;2.40;99.90;;;;;;5009590;28;20025;-66
2023/02/15 12:42:16;;;;;;;20.75;10.70;;;2.60;99.90;;;;;;5008294;28;20486;-66
2023/02/15 12:45:02;;;;;;;28.25;12.20;;;2.70;99.90;;;;;;4985279;28;20108;-65
2023/02/15 12:47:31;;;;;;;21.52;11.60;;;2.60;99.90;;;;;;5003403;28;20499;-65
2023/02/15 12:50:21;;;;;;;18.50;7.97;;;2.40;99.90;;;;;;5013837;28;20045;-67
2023/02/15 12:53:05;;;;;;;22.13;10.30;;;2.60;99.90;;;;;;4999123;28;20073;-64
2023/02/15 12:55:30;;;;;;;23.88;11.38;;;2.90;99.90;;;;;;4995472;28;20124;-65
2023/02/15 12:58:19;;;;;;;18.38;10.55;;;3.00;99.90;;;;;;5008643;28;20070;-65
2023/02/15 13:00:47;;;;;;;20.52;10.30;;;2.90;99.90;;;;;;5008088;28;20026;-65
2023/02/15 13:03:23;;;;;;;26.38;10.23;;;3.10;99.90;;;;;;4988377;28;20477;-65
2023/02/15 13:05:55;;;;;;;23.45;11.05;;;3.10;99.90;;;;;;4986584;28;20052;-64
2023/02/15 13:08:31;;;;;;;26.10;11.80;;;3.10;99.90;;;;;;4995607;28;20477;-65
2023/02/15 13:11:10;;;;;;;30.73;10.65;;;3.00;99.90;;;;;;5011943;28;20034;-65
2023/02/15 13:13:55;;;;;;;29.67;12.23;;;2.70;99.90;;;;;;4997286;28;20068;-66
2023/02/15 13:16:31;;;;;;;15.93;8.52;;;2.90;99.90;;;;;;5005906;28;20026;-64
2023/02/15 13:19:02;;;;;;;26.42;11.45;;;2.70;99.90;;;;;;4995885;28;20026;-65
2023/02/15 13:21:36;;;;;;;20.67;11.45;;;2.50;99.90;;;;;;4994479;28;20048;-65
2023/02/15 13:24:18;;;;;;;22.67;10.32;;;2.60;99.90;;;;;;4997021;28;20120;-65
2023/02/15 13:26:45;;;;;;;;;;;2.60;99.90;;;;;;4997282;28;20512;-65
2023/02/15 13:29:34;;;;;;;21.85;10.20;;;2.90;99.90;;;;;;4995627;28;19925;-65
2023/02/15 13:32:27;;;;;;;27.65;11.57;;;2.90;99.90;;;;;;4993915;28;20510;-65
2023/02/15 13:35:01;;;;;;;22.88;9.60;;;2.80;99.90;;;;;;4991387;28;20052;-65
2023/02/15 13:38:02;;;;;;;24.40;11.63;;;2.90;99.90;;;;;;5000609;28;20026;-67
2023/02/15 13:40:42;;;;;;;15.30;8.95;;;2.90;99.90;;;;;;5013243;28;20104;-68
2023/02/15 13:43:28;;;;;;;21.77;10.57;;;2.90;99.90;;;;;;4994156;28;20034;-67
2023/02/15 13:46:20;;;;;;;19.13;10.00;;;2.90;99.90;;;;;;5007953;28;20042;-67
2023/02/15 13:49:18;;;;;;;27.90;11.73;;;2.90;99.90;;;;;;5010908;28;20120;-68
2023/02/15 13:52:05;;;;;;;18.33;10.10;;;2.80;99.90;;;;;;5016007;28;20029;-68
2023/02/15 13:54:53;;;;;;;26.67;11.05;;;2.90;99.90;;;;;;4991502;28;20030;-68
2023/02/15 13:57:43;;;;;;;20.63;9.77;;;3.00;99.90;;;;;;5010128;28;20030;-68
2023/02/15 14:00:25;;;;;;;19.95;10.88;;;2.80;99.90;;;;;;5012936;28;20052;-68
2023/02/15 14:03:42;;;;;;;29.75;11.77;;;3.00;99.90;;;;;;4992198;28;20627;-68
2023/02/15 14:06:34;;;;;;;15.15;8.73;;;3.10;99.90;;;;;;5005986;28;20045;-68
2023/02/15 14:09:24;;;;;;;23.13;11.82;;;3.40;99.90;;;;;;5012235;28;20503;-67
2023/02/15 14:12:16;;;;;;;25.60;10.63;;;3.40;99.90;;;;;;5006893;28;20077;-68
2023/02/15 14:15:06;;;;;;;28.65;9.88;;;3.40;99.90;;;;;;4996818;28;20374;-67
2023/02/15 14:17:41;;;;;;;26.88;12.45;;;3.70;99.90;;;;;;4995108;28;20031;-68
2023/02/15 14:20:54;;;;;;;30.15;11.00;;;3.70;99.90;;;;;;5006505;28;20038;-67
2023/02/15 14:23:38;;;;;;;23.67;11.73;;;3.90;99.90;;;;;;5012815;28;20091;-68